createdAt,value
2022-08-10T00:00:32.388Z,55.73
2022-08-10T00:02:36.567Z,55.63
2022-08-10T00:04:39.628Z,55.15
2022-08-10T00:06:42.703Z,55.56
2022-08-10T00:08:46.201Z,55.50
2022-08-10T00:10:49.252Z,56.11
2022-08-10T00:12:55.220Z,55.43
2022-08-10T00:15:00.072Z,56.39
2022-08-10T00:17:03.140Z,55.86
2022-08-10T00:19:06.296Z,56.23
2022-08-10T00:21:10.106Z,55.42
2022-08-10T00:23:13.536Z,56.26
2022-08-10T00:25:16.576Z,56.44
2022-08-10T00:27:52.230Z,56.67
2022-08-10T00:29:43.996Z,56.58
2022-08-10T00:31:58.114Z,56.75
2022-08-10T00:34:02.495Z,55.91
2022-08-10T00:36:05.844Z,56.99
2022-08-10T00:38:08.852Z,56.04
2022-08-10T00:40:13.136Z,57.07
2022-08-10T00:42:16.987Z,57.31
2022-08-10T00:44:20.320Z,57.61
2022-08-10T00:46:26.800Z,56.28
2022-08-10T00:48:30.611Z,57.62
2022-08-10T00:50:34.249Z,57.47
2022-08-10T00:52:38.545Z,57.41
2022-08-10T00:54:43.122Z,58.21
2022-08-10T00:57:17.847Z,57.16
2022-08-10T00:59:09.213Z,58.00
2022-08-10T01:02:09.109Z,58.38
2022-08-10T01:04:57.380Z,57.65
2022-08-10T01:06:02.970Z,57.66
2022-08-10T01:08:17.115Z,56.98
2022-08-10T01:10:28.504Z,58.44
2022-08-10T01:12:40.698Z,58.73
2022-08-10T01:14:49.971Z,58.78
2022-08-10T01:16:57.222Z,57.94
2022-08-10T01:19:05.787Z,58.92
2022-08-10T01:21:38.183Z,59.04
2022-08-10T01:23:59.901Z,58.83
2022-08-10T01:26:40.636Z,58.92
2022-08-10T01:28:52.279Z,58.92
2022-08-10T01:30:57.462Z,58.40
2022-08-10T01:33:04.701Z,58.98
2022-08-10T01:35:13.596Z,59.26
2022-08-10T01:37:19.398Z,59.68
2022-08-10T01:39:25.249Z,59.08
2022-08-10T01:41:45.645Z,59.66
2022-08-10T01:43:55.617Z,59.33
2022-08-10T01:46:03.156Z,59.95
2022-08-10T01:48:24.660Z,59.04
2022-08-10T01:50:31.694Z,59.64
2022-08-10T01:52:36.791Z,59.86
2022-08-10T01:54:41.048Z,58.61
2022-08-10T01:56:46.505Z,58.83
2022-08-10T01:58:52.479Z,59.11
2022-08-10T02:00:56.100Z,59.80
2022-08-10T02:03:03.230Z,60.70
2022-08-10T02:05:08.209Z,59.30
2022-08-10T02:07:16.100Z,59.97
2022-08-10T02:09:22.348Z,60.62
2022-08-10T02:11:28.827Z,59.43
2022-08-10T02:13:52.396Z,59.57
2022-08-10T02:16:01.511Z,60.60
2022-08-10T02:18:07.833Z,59.56
2022-08-10T02:20:14.117Z,60.50
2022-08-10T02:22:37.503Z,60.15
2022-08-10T02:24:42.591Z,61.07
2022-08-10T02:26:46.121Z,60.80
2022-08-10T02:28:49.320Z,60.38
2022-08-10T02:30:54.696Z,60.44
2022-08-10T02:33:01.948Z,60.93
2022-08-10T02:35:19.418Z,61.32
2022-08-10T02:37:27.303Z,59.96
2022-08-10T02:39:31.209Z,61.72
2022-08-10T02:45:02.829Z,60.78
2022-08-10T02:45:19.339Z,60.71
2022-08-10T02:46:36.628Z,62.18
2022-08-10T02:48:43.495Z,61.90
2022-08-10T02:50:52.117Z,60.88
2022-08-10T02:53:00.941Z,62.17
2022-08-10T02:55:17.677Z,61.75
2022-08-10T02:57:24.757Z,61.16
2022-08-10T02:59:38.578Z,62.42
2022-08-10T03:01:46.293Z,61.13
2022-08-10T03:03:53.315Z,61.23
2022-08-10T03:06:01.945Z,62.25
2022-08-10T03:08:07.256Z,62.08
2022-08-10T03:10:14.713Z,61.77
2022-08-10T03:12:36.790Z,61.11
2022-08-10T03:14:41.927Z,62.44
2022-08-10T03:16:45.583Z,62.29
2022-08-10T03:18:49.363Z,61.98
2022-08-10T03:20:52.920Z,62.38
2022-08-10T03:22:58.107Z,61.42
2022-08-10T03:25:02.594Z,60.82
2022-08-10T03:27:06.434Z,62.52
2022-08-10T03:29:11.139Z,62.50
2022-08-10T03:31:14.214Z,62.90
2022-08-10T03:33:18.514Z,63.06
2022-08-10T03:35:22.145Z,62.61
2022-08-10T03:37:25.665Z,62.57
2022-08-10T03:39:30.219Z,62.68
2022-08-10T03:41:36.560Z,62.29
2022-08-10T03:43:40.438Z,61.94
2022-08-10T03:45:55.005Z,61.14
2022-08-10T03:48:00.104Z,63.06
2022-08-10T03:50:27.752Z,63.17
2022-08-10T03:52:28.406Z,62.25
2022-08-10T03:54:33.418Z,61.98
2022-08-10T03:56:38.403Z,61.76
2022-08-10T03:58:41.919Z,61.79
2022-08-10T04:00:46.353Z,61.90
2022-08-10T04:02:52.476Z,63.17
2022-08-10T04:04:56.183Z,61.79
2022-08-10T04:07:00.761Z,62.48
2022-08-10T04:09:04.413Z,63.39
2022-08-10T04:11:08.900Z,63.08
2022-08-10T04:13:11.909Z,63.38
2022-08-10T04:15:14.927Z,62.92
2022-08-10T04:17:18.376Z,62.82
2022-08-10T04:19:44.013Z,61.86
2022-08-10T04:21:49.147Z,62.96
2022-08-10T04:23:53.350Z,63.13
2022-08-10T04:25:57.149Z,63.17
2022-08-10T04:28:01.684Z,63.27
2022-08-10T04:30:07.567Z,62.05
2022-08-10T04:32:11.266Z,62.84
2022-08-10T04:34:15.592Z,63.22
2022-08-10T04:36:19.613Z,63.45
2022-08-10T04:38:24.165Z,62.04
2022-08-10T04:40:29.967Z,62.70
2022-08-10T04:42:34.282Z,62.98
2022-08-10T04:44:39.110Z,62.31
2022-08-10T04:46:56.039Z,62.14
2022-08-10T04:49:02.245Z,63.28
2022-08-10T04:51:08.012Z,63.46
2022-08-10T04:53:14.274Z,62.70
2022-08-10T04:55:17.298Z,62.33
2022-08-10T04:57:20.395Z,62.01
2022-08-10T04:59:23.458Z,62.06
2022-08-10T05:02:21.650Z,63.48
2022-08-10T05:04:33.765Z,63.34
2022-08-10T05:06:13.960Z,62.11
2022-08-10T05:08:17.024Z,62.10
2022-08-10T05:10:20.048Z,61.86
2022-08-10T05:12:23.492Z,62.14
2022-08-10T05:14:26.625Z,62.06
2022-08-10T05:16:32.431Z,62.86
2022-08-10T05:18:35.791Z,62.72
2022-08-10T05:20:38.988Z,61.74
2022-08-10T05:22:43.599Z,63.12
2022-08-10T05:24:46.728Z,61.97
2022-08-10T05:27:00.590Z,61.46
2022-08-10T05:29:12.782Z,62.87
2022-08-10T05:31:22.621Z,62.63
2022-08-10T05:33:28.535Z,60.73
2022-08-10T05:35:56.462Z,59.97
2022-08-10T05:38:12.291Z,59.55
2022-08-10T05:40:17.443Z,59.15
2022-08-10T05:42:21.671Z,58.94
2022-08-10T05:44:25.296Z,58.24
2022-08-10T05:46:28.310Z,58.11
2022-08-10T05:48:54.461Z,57.64
2022-08-10T05:50:55.891Z,58.03
2022-08-10T05:53:03.748Z,57.09
2022-08-10T05:55:23.679Z,56.15
2022-08-10T05:57:26.753Z,56.05
2022-08-10T06:00:33.148Z,55.38
2022-08-10T06:02:33.531Z,55.31
2022-08-10T06:04:28.114Z,54.51
2022-08-10T06:06:33.878Z,55.11
2022-08-10T06:08:37.593Z,54.78
2022-08-10T06:12:23.599Z,54.65
2022-08-10T06:13:30.781Z,53.33
2022-08-10T06:15:50.594Z,53.91
2022-08-10T06:18:01.782Z,53.45
2022-08-10T06:20:07.753Z,52.86
2022-08-10T06:22:11.835Z,52.72
2022-08-10T06:24:17.321Z,52.01
2022-08-10T06:26:21.750Z,52.57
2022-08-10T06:28:26.797Z,52.10
2022-08-10T06:30:30.908Z,51.48
2022-08-10T06:32:34.183Z,51.49
2022-08-10T06:34:41.015Z,50.95
2022-08-10T06:36:45.869Z,50.97
2022-08-10T06:38:49.702Z,51.00
2022-08-10T06:40:57.026Z,50.68
2022-08-10T06:43:02.165Z,51.09
2022-08-10T06:45:08.821Z,50.93
2022-08-10T06:47:13.175Z,50.74
2022-08-10T06:49:25.948Z,50.04
2022-08-10T06:51:33.270Z,50.15
2022-08-10T06:53:53.012Z,49.48
2022-08-10T06:56:01.427Z,49.34
2022-08-10T06:58:04.852Z,49.22
2022-08-10T07:00:10.179Z,49.88
2022-08-10T07:02:18.061Z,49.70
2022-08-10T07:04:32.372Z,49.41
2022-08-10T07:06:37.600Z,49.34
2022-08-10T07:08:42.892Z,48.87
2022-08-10T07:10:46.876Z,48.68
2022-08-10T07:12:51.905Z,49.06
2022-08-10T07:14:55.617Z,48.66
2022-08-10T07:16:59.647Z,49.29
2022-08-10T07:19:02.965Z,48.48
2022-08-10T07:21:07.046Z,48.46
2022-08-10T07:23:56.830Z,47.32
2022-08-10T07:25:37.569Z,48.19
2022-08-10T07:27:59.596Z,47.60
2022-08-10T07:30:05.164Z,47.56
2022-08-10T07:32:09.289Z,48.03
2022-08-10T07:34:13.130Z,48.42
2022-08-10T07:36:32.565Z,48.08
2022-08-10T07:38:37.310Z,47.67
2022-08-10T07:40:41.985Z,47.53
2022-08-10T07:42:46.336Z,47.16
2022-08-10T07:44:50.574Z,47.78
2022-08-10T07:46:55.498Z,46.99
2022-08-10T07:49:01.461Z,47.05
2022-08-10T07:51:04.803Z,47.42
2022-08-10T07:53:11.102Z,48.02
2022-08-10T07:55:16.704Z,47.79
2022-08-10T07:57:31.845Z,47.28
2022-08-10T07:59:39.127Z,46.40
2022-08-10T08:01:44.278Z,47.29
2022-08-10T08:04:04.985Z,46.34
2022-08-10T08:06:12.653Z,45.75
2022-08-10T08:08:16.701Z,45.84
2022-08-10T08:10:20.596Z,46.25
2022-08-10T08:12:25.644Z,46.48
2022-08-10T08:14:28.901Z,45.69
2022-08-10T08:16:33.360Z,46.01
2022-08-10T08:18:37.264Z,45.48
2022-08-10T08:20:41.115Z,45.33
2022-08-10T08:24:16.511Z,45.39
2022-08-10T08:25:13.025Z,46.36
2022-08-10T08:27:19.693Z,45.71
2022-08-10T08:29:25.563Z,45.13
2022-08-10T08:31:29.208Z,44.72
2022-08-10T08:33:41.166Z,44.13
2022-08-10T08:35:46.155Z,44.04
2022-08-10T08:38:32.798Z,44.40
2022-08-10T08:40:18.055Z,44.19
2022-08-10T08:42:34.189Z,43.46
2022-08-10T08:44:49.137Z,43.21
2022-08-10T08:48:04.465Z,44.72
2022-08-10T08:50:05.519Z,43.13
2022-08-10T08:52:24.616Z,43.35
2022-08-10T08:54:45.927Z,43.64
2022-08-10T08:56:55.586Z,43.96
2022-08-10T08:59:10.188Z,43.20
2022-08-10T09:01:24.853Z,42.81
2022-08-10T09:03:56.917Z,42.88
2022-08-10T09:06:08.885Z,43.29
2022-08-10T09:08:24.002Z,42.73
2022-08-10T09:10:37.148Z,43.84
2022-08-10T09:12:46.434Z,43.18
2022-08-10T09:14:53.980Z,42.46
2022-08-10T09:17:07.008Z,42.39
2022-08-10T09:19:35.223Z,42.84
2022-08-10T09:21:58.624Z,42.38
2022-08-10T09:24:16.447Z,42.48
2022-08-10T09:26:23.201Z,42.46
2022-08-10T09:28:30.054Z,41.42
2022-08-10T09:30:38.671Z,41.72
2022-08-10T09:36:16.200Z,42.24
2022-08-10T09:36:21.267Z,42.23
2022-08-10T09:38:02.160Z,42.33
2022-08-10T09:41:00.028Z,42.08
2022-08-10T09:42:47.197Z,42.41
2022-08-10T09:45:04.732Z,42.54
2022-08-10T09:47:21.235Z,41.96
2022-08-10T09:49:57.073Z,41.96
2022-08-10T09:52:11.058Z,42.67
2022-08-10T09:54:22.809Z,42.44
2022-08-10T09:56:30.883Z,41.47
2022-08-10T09:58:39.718Z,40.96
2022-08-10T10:00:47.487Z,40.06
2022-08-10T10:03:01.482Z,41.49
2022-08-10T10:05:13.465Z,41.89
2022-08-10T10:07:26.201Z,40.81
2022-08-10T10:09:33.346Z,42.11
2022-08-10T10:11:44.952Z,41.57
2022-08-10T10:14:03.893Z,42.07
2022-08-10T10:16:23.480Z,41.30
2022-08-10T10:18:35.484Z,41.85
2022-08-10T10:20:43.509Z,42.76
2022-08-10T10:23:02.915Z,41.31
2022-08-10T10:25:19.874Z,41.73
2022-08-10T10:27:30.943Z,41.44
2022-08-10T10:29:58.203Z,41.61
2022-08-10T10:32:05.505Z,41.76
2022-08-10T10:34:15.331Z,41.98
2022-08-10T10:36:20.646Z,41.71
2022-08-10T10:38:26.977Z,42.08
2022-08-10T10:40:35.576Z,42.12
2022-08-10T10:42:45.835Z,42.23
2022-08-10T10:44:54.392Z,42.38
2022-08-10T10:47:06.043Z,41.87
2022-08-10T10:49:17.556Z,41.88
2022-08-10T10:51:27.590Z,41.69
2022-08-10T10:53:36.296Z,42.32
2022-08-10T10:56:13.294Z,42.17
2022-08-10T10:58:18.388Z,41.55
2022-08-10T11:00:25.959Z,41.71
2022-08-10T11:02:47.217Z,41.51
2022-08-10T11:04:58.991Z,41.19
2022-08-10T11:07:10.357Z,41.54
2022-08-10T11:10:04.726Z,41.94
2022-08-10T11:12:01.660Z,41.64
2022-08-10T11:14:27.175Z,41.72
2022-08-10T11:16:43.224Z,41.42
2022-08-10T11:19:04.863Z,42.07
2022-08-10T11:21:25.398Z,41.20
2022-08-10T11:23:34.424Z,41.41
2022-08-10T11:25:40.056Z,41.17
2022-08-10T11:27:49.010Z,40.59
2022-08-10T11:30:00.316Z,41.43
2022-08-10T11:32:05.860Z,41.27
2022-08-10T11:34:47.665Z,41.18
2022-08-10T11:36:45.205Z,41.84
2022-08-10T11:39:13.976Z,41.90
2022-08-10T11:42:07.069Z,41.83
2022-08-10T11:44:09.529Z,41.82
2022-08-10T11:46:28.010Z,41.71
2022-08-10T11:48:53.239Z,41.66
2022-08-10T11:51:01.296Z,42.04
2022-08-10T11:53:14.804Z,41.83
2022-08-10T11:55:21.440Z,41.39
2022-08-10T11:57:52.930Z,42.13
2022-08-10T11:59:59.403Z,42.16
2022-08-10T12:02:03.416Z,41.43
2022-08-10T12:04:11.880Z,41.74
2022-08-10T12:06:34.009Z,42.06
2022-08-10T12:10:05.134Z,42.01
2022-08-10T12:11:08.817Z,41.75
2022-08-10T12:13:16.721Z,41.38
2022-08-10T12:15:24.715Z,41.45
2022-08-10T12:17:31.327Z,41.26
2022-08-10T12:20:02.176Z,41.65
2022-08-10T12:22:06.835Z,41.90
2022-08-10T12:24:13.120Z,42.08
2022-08-10T12:26:20.770Z,42.53
2022-08-10T12:28:49.910Z,42.38
2022-08-10T12:30:57.693Z,41.83
2022-08-10T12:33:03.302Z,42.17
2022-08-10T12:35:17.994Z,41.27
2022-08-10T12:37:32.522Z,41.46
2022-08-10T12:39:41.329Z,41.09
2022-08-10T12:41:53.037Z,42.17
2022-08-10T12:44:07.896Z,41.68
2022-08-10T12:46:19.307Z,41.08
2022-08-10T12:48:31.386Z,42.14
2022-08-10T12:50:40.544Z,41.81
2022-08-10T12:52:51.537Z,40.81
2022-08-10T12:54:54.971Z,41.46
2022-08-10T12:57:01.838Z,41.18
2022-08-10T12:59:06.309Z,41.17
2022-08-10T13:01:17.811Z,40.55
2022-08-10T13:04:20.781Z,40.75
2022-08-10T13:06:00.259Z,40.69
2022-08-10T13:08:28.145Z,40.74
2022-08-10T13:10:31.456Z,40.37
2022-08-10T13:12:40.482Z,41.14
2022-08-10T13:14:49.670Z,40.89
2022-08-10T13:16:53.261Z,41.01
2022-08-10T13:18:59.853Z,40.90
2022-08-10T13:21:19.671Z,40.45
2022-08-10T13:23:26.703Z,41.20
2022-08-10T13:25:31.766Z,40.85
2022-08-10T13:28:00.410Z,41.00
2022-08-10T13:30:06.730Z,40.42
2022-08-10T13:32:13.502Z,40.27
2022-08-10T13:34:43.697Z,40.59
2022-08-10T13:36:42.667Z,40.35
2022-08-10T13:38:48.745Z,41.08
2022-08-10T13:40:53.030Z,40.69
2022-08-10T13:42:59.592Z,40.56
2022-08-10T13:45:08.064Z,40.47
2022-08-10T13:47:14.568Z,40.53
2022-08-10T13:49:19.402Z,40.87
2022-08-10T13:51:56.883Z,40.77
2022-08-10T13:53:49.861Z,40.66
2022-08-10T13:55:56.865Z,41.11
2022-08-10T13:58:03.492Z,41.10
2022-08-10T14:00:37.464Z,40.76
2022-08-10T14:02:37.479Z,40.84
2022-08-10T14:04:45.644Z,40.08
2022-08-10T14:06:54.578Z,40.41
2022-08-10T14:09:02.282Z,40.03
2022-08-10T14:11:10.963Z,40.28
2022-08-10T14:13:18.427Z,40.46
2022-08-10T14:15:28.797Z,41.09
2022-08-10T14:17:32.958Z,41.27
2022-08-10T14:19:43.625Z,40.93
2022-08-10T14:21:47.497Z,41.21
2022-08-10T14:23:53.645Z,40.84
2022-08-10T14:26:03.121Z,40.55
2022-08-10T14:28:08.648Z,40.70
2022-08-10T14:30:15.576Z,40.51
2022-08-10T14:32:20.300Z,40.69
2022-08-10T14:36:16.501Z,40.66
2022-08-10T14:36:53.912Z,40.59
2022-08-10T14:38:57.223Z,40.46
2022-08-10T14:41:02.227Z,40.88
2022-08-10T14:43:07.874Z,40.85
2022-08-10T14:45:20.443Z,40.69
2022-08-10T14:47:54.230Z,40.24
2022-08-10T14:49:56.940Z,41.00
2022-08-10T14:52:03.115Z,40.08
2022-08-10T14:54:06.618Z,40.23
2022-08-10T14:56:13.666Z,40.06
2022-08-10T14:58:21.201Z,39.79
2022-08-10T15:00:35.356Z,40.25
2022-08-10T15:02:53.234Z,40.21
2022-08-10T15:05:01.427Z,39.74
2022-08-10T15:07:12.327Z,40.43
2022-08-10T15:09:19.249Z,40.55
2022-08-10T15:12:11.880Z,40.54
2022-08-10T15:14:15.183Z,39.63
2022-08-10T15:16:15.020Z,40.43
2022-08-10T15:18:18.597Z,40.18
2022-08-10T15:20:31.291Z,40.08
2022-08-10T15:22:37.957Z,40.78
2022-08-10T15:25:01.788Z,40.61
2022-08-10T15:27:08.738Z,40.80
2022-08-10T15:29:23.762Z,40.44
2022-08-10T15:31:33.580Z,39.85
2022-08-10T15:34:04.588Z,41.01
2022-08-10T15:36:26.552Z,40.82
2022-08-10T15:38:34.713Z,40.79
2022-08-10T15:40:50.771Z,39.98
2022-08-10T15:42:58.207Z,40.40
2022-08-10T15:45:01.643Z,39.94
2022-08-10T15:47:10.623Z,40.03
2022-08-10T15:49:20.473Z,40.06
2022-08-10T15:51:32.534Z,39.32
2022-08-10T15:53:54.784Z,39.70
2022-08-10T15:56:10.249Z,40.19
2022-08-10T15:58:30.152Z,39.63
2022-08-10T16:00:50.933Z,40.54
2022-08-10T16:02:59.499Z,40.26
2022-08-10T16:05:08.068Z,40.15
2022-08-10T16:07:13.749Z,39.86
2022-08-10T16:10:22.650Z,40.47
2022-08-10T16:11:46.340Z,40.13
2022-08-10T16:14:01.172Z,39.79
2022-08-10T16:16:07.422Z,40.43
2022-08-10T16:18:14.473Z,40.24
2022-08-10T16:20:22.791Z,40.14
2022-08-10T16:22:36.208Z,39.63
2022-08-10T16:24:42.770Z,39.66
2022-08-10T16:26:48.167Z,40.11
2022-08-10T16:29:06.392Z,40.01
2022-08-10T16:31:15.328Z,39.92
2022-08-10T16:33:24.457Z,40.72
2022-08-10T16:35:52.518Z,40.08
2022-08-10T16:37:59.837Z,40.23
2022-08-10T16:40:04.332Z,40.79
2022-08-10T16:42:10.730Z,40.51
2022-08-10T16:44:14.975Z,40.37
2022-08-10T16:46:20.088Z,40.36
2022-08-10T16:48:49.430Z,40.87
2022-08-10T16:50:53.491Z,40.63
2022-08-10T16:53:00.237Z,41.52
2022-08-10T16:55:17.219Z,40.47
2022-08-10T16:57:29.314Z,40.38
2022-08-10T16:59:35.563Z,41.35
2022-08-10T17:01:40.793Z,40.64
2022-08-10T17:04:08.041Z,41.66
2022-08-10T17:06:13.623Z,40.86
2022-08-10T17:08:18.729Z,41.21
2022-08-10T17:10:22.680Z,40.88
2022-08-10T17:12:27.479Z,41.63
2022-08-10T17:14:31.075Z,40.69
2022-08-10T17:16:35.505Z,40.64
2022-08-10T17:18:41.088Z,40.23
2022-08-10T17:20:45.727Z,40.85
2022-08-10T17:22:54.647Z,40.43
2022-08-10T17:25:02.036Z,41.13
2022-08-10T17:28:04.124Z,41.32
2022-08-10T17:29:58.229Z,40.36
2022-08-10T17:31:59.747Z,40.62
2022-08-10T17:34:11.453Z,41.11
2022-08-10T17:36:17.631Z,41.15
2022-08-10T17:38:22.785Z,40.53
2022-08-10T17:40:27.814Z,41.43
2022-08-10T17:42:31.919Z,41.49
2022-08-10T17:44:36.609Z,41.93
2022-08-10T17:46:41.155Z,42.11
2022-08-10T17:48:45.930Z,41.42
2022-08-10T17:50:50.614Z,41.68
2022-08-10T17:52:59.840Z,42.07
2022-08-10T17:55:06.232Z,41.64
2022-08-10T17:57:12.408Z,42.53
2022-08-10T17:59:17.045Z,41.60
2022-08-10T18:01:41.747Z,41.89
2022-08-10T18:03:51.967Z,41.81
2022-08-10T18:05:57.661Z,42.86
2022-08-10T18:08:03.502Z,42.17
2022-08-10T18:10:11.087Z,42.55
2022-08-10T18:12:18.512Z,42.18
2022-08-10T18:14:22.852Z,42.69
2022-08-10T18:16:28.351Z,43.01
2022-08-10T18:18:34.075Z,42.99
2022-08-10T18:20:38.719Z,42.77
2022-08-10T18:22:45.600Z,42.67
2022-08-10T18:24:50.620Z,42.70
2022-08-10T18:26:55.057Z,43.26
2022-08-10T18:28:58.459Z,43.19
2022-08-10T18:31:02.787Z,43.47
2022-08-10T18:33:10.381Z,43.22
2022-08-10T18:35:14.083Z,44.01
2022-08-10T18:37:20.584Z,43.83
2022-08-10T18:39:26.137Z,44.34
2022-08-10T18:41:38.600Z,44.17
2022-08-10T18:44:11.616Z,44.15
2022-08-10T18:46:22.005Z,44.22
2022-08-10T18:48:28.105Z,44.94
2022-08-10T18:50:33.186Z,44.73
2022-08-10T18:52:38.359Z,44.68
2022-08-10T18:54:45.745Z,44.85
2022-08-10T18:56:57.528Z,45.52
2022-08-10T18:59:10.087Z,45.63
2022-08-10T19:01:21.513Z,45.52
2022-08-10T19:03:54.644Z,45.91
2022-08-10T19:06:13.337Z,45.67
2022-08-10T19:09:09.569Z,46.61
2022-08-10T19:11:46.675Z,47.02
2022-08-10T19:13:59.818Z,47.06
2022-08-10T19:16:15.157Z,47.43
2022-08-10T19:18:24.848Z,47.47
2022-08-10T19:20:35.363Z,47.03
2022-08-10T19:22:47.689Z,47.57
2022-08-10T19:24:58.261Z,47.53
2022-08-10T19:27:11.602Z,48.14
2022-08-10T19:30:01.057Z,47.48
2022-08-10T19:31:59.258Z,48.45
2022-08-10T19:34:11.733Z,48.54
2022-08-10T19:36:19.696Z,47.53
2022-08-10T19:38:33.176Z,48.60
2022-08-10T19:40:44.290Z,47.56
2022-08-10T19:42:54.204Z,48.00
2022-08-10T19:45:05.936Z,47.92
2022-08-10T19:47:15.676Z,48.18
2022-08-10T19:49:24.231Z,48.56
2022-08-10T19:51:31.234Z,48.59
2022-08-10T19:53:41.518Z,49.52
2022-08-10T19:55:51.146Z,48.64
2022-08-10T19:57:58.414Z,48.55
2022-08-10T20:00:18.905Z,48.60
2022-08-10T20:02:28.302Z,48.83
2022-08-10T20:04:33.111Z,49.55
2022-08-10T20:06:44.236Z,49.03
2022-08-10T20:08:53.406Z,49.73
2022-08-10T20:11:02.350Z,49.46
2022-08-10T20:13:11.684Z,50.05
2022-08-10T20:15:24.338Z,49.99
2022-08-10T20:17:51.106Z,49.61
2022-08-10T20:20:00.231Z,49.63
2022-08-10T20:22:06.672Z,49.91
2022-08-10T20:24:12.119Z,50.07
2022-08-10T20:26:19.657Z,50.54
2022-08-10T20:28:35.501Z,50.35
2022-08-10T20:30:49.620Z,50.55
2022-08-10T20:32:57.743Z,50.12
2022-08-10T20:35:11.117Z,50.22
2022-08-10T20:37:24.885Z,50.76
2022-08-10T20:39:47.881Z,50.99
2022-08-10T20:41:58.970Z,50.65
2022-08-10T20:44:09.037Z,50.83
2022-08-10T20:46:21.331Z,50.68
2022-08-10T20:48:28.145Z,50.99
2022-08-10T20:50:36.893Z,50.70
2022-08-10T20:52:41.563Z,50.81
2022-08-10T20:54:48.362Z,51.17
2022-08-10T20:57:01.989Z,51.28
2022-08-10T20:59:17.671Z,51.57
2022-08-10T21:02:07.499Z,51.00
2022-08-10T21:04:01.577Z,51.79
2022-08-10T21:06:12.676Z,51.41
2022-08-10T21:08:18.638Z,50.95
2022-08-10T21:10:39.244Z,51.02
2022-08-10T21:12:51.076Z,50.99
2022-08-10T21:14:59.381Z,50.80
2022-08-10T21:17:14.014Z,51.29
2022-08-10T21:19:32.359Z,50.54
2022-08-10T21:21:58.912Z,51.34
2022-08-10T21:24:05.444Z,51.33
2022-08-10T21:26:11.697Z,51.32
2022-08-10T21:28:40.638Z,51.64
2022-08-10T21:31:10.425Z,51.09
2022-08-10T21:33:17.593Z,51.45
2022-08-10T21:35:37.713Z,51.50
2022-08-10T21:37:56.644Z,51.79
2022-08-10T21:40:35.546Z,51.40
2022-08-10T21:43:05.014Z,51.38
2022-08-10T21:45:58.393Z,51.41
2022-08-10T21:48:30.262Z,51.30
2022-08-10T21:51:00.028Z,51.85
2022-08-10T21:53:44.797Z,51.74
2022-08-10T21:56:14.333Z,51.40
2022-08-10T21:58:36.963Z,51.75
2022-08-10T22:01:02.314Z,51.72
2022-08-10T22:03:23.564Z,52.20
2022-08-10T22:05:47.815Z,52.06
2022-08-10T22:08:14.999Z,52.24
2022-08-10T22:10:39.561Z,52.59
2022-08-10T22:13:03.261Z,52.57
2022-08-10T22:16:03.990Z,52.10
2022-08-10T22:18:15.645Z,52.40
2022-08-10T22:20:54.185Z,53.02
2022-08-10T22:23:29.472Z,52.31
2022-08-10T22:26:08.859Z,52.72
2022-08-10T22:28:33.973Z,53.10
2022-08-10T22:31:26.877Z,52.32
2022-08-10T22:33:50.862Z,53.25
2022-08-10T22:36:24.206Z,52.97
2022-08-10T22:39:02.190Z,52.53
2022-08-10T22:41:28.022Z,52.96
2022-08-10T22:43:51.114Z,53.13
2022-08-10T22:46:13.935Z,53.27
2022-08-10T22:48:34.514Z,53.07
2022-08-10T22:50:42.503Z,52.54
2022-08-10T22:53:03.093Z,53.50
2022-08-10T22:55:34.596Z,52.63
2022-08-10T22:58:02.979Z,52.85
2022-08-10T23:00:15.240Z,53.77
2022-08-10T23:02:33.316Z,53.61
2022-08-10T23:04:44.776Z,53.18
2022-08-10T23:06:55.914Z,53.96
2022-08-10T23:09:01.477Z,52.89
2022-08-10T23:11:08.772Z,53.90
2022-08-10T23:13:14.643Z,53.44
2022-08-10T23:15:57.082Z,53.58
2022-08-10T23:18:18.681Z,53.31
2022-08-10T23:20:22.805Z,53.68
2022-08-10T23:22:33.477Z,54.03
2022-08-10T23:24:40.809Z,53.19
2022-08-10T23:26:45.801Z,53.59
2022-08-10T23:28:58.361Z,53.05
2022-08-10T23:31:11.214Z,52.99
2022-08-10T23:33:15.827Z,53.14
2022-08-10T23:36:30.233Z,54.21
2022-08-10T23:38:12.047Z,53.88
2022-08-10T23:40:16.740Z,54.17
2022-08-10T23:42:22.630Z,53.43
2022-08-10T23:44:26.741Z,54.45
2022-08-10T23:46:33.384Z,53.43
2022-08-10T23:48:38.464Z,54.91
2022-08-10T23:50:41.544Z,54.59
2022-08-10T23:53:03.808Z,54.35
2022-08-10T23:55:24.775Z,54.92
2022-08-10T23:57:29.586Z,54.55
2022-08-10T23:59:33.365Z,55.11
